createdAt,value
2018-09-26T00:02:32.209Z,101584.34
2018-09-26T00:05:01.377Z,101590.41
2018-09-26T00:07:30.320Z,101590.05
2018-09-26T00:09:59.287Z,101592.84
2018-09-26T00:12:28.242Z,101593.22
2018-09-26T00:14:57.280Z,101591.75
2018-09-26T00:17:26.234Z,101600.69
2018-09-26T00:19:55.245Z,101602.64
2018-09-26T00:22:24.180Z,101603.03
2018-09-26T00:24:53.149Z,101600.34
2018-09-26T00:27:22.113Z,101612.19
2018-09-26T00:29:51.029Z,101616.23
2018-09-26T00:32:19.954Z,101620.25
2018-09-26T00:34:48.861Z,101614.41
2018-09-26T00:37:17.802Z,101619.39
2018-09-26T00:39:46.737Z,101616.96
2018-09-26T00:42:15.836Z,101617.95
2018-09-26T00:44:44.782Z,101617.59
2018-09-26T00:47:13.701Z,101625.38
2018-09-26T00:49:42.685Z,101619.87
2018-09-26T00:52:11.621Z,101619.87
2018-09-26T00:54:40.554Z,101625.88
2018-09-26T00:57:09.741Z,101630.02
2018-09-26T00:59:38.689Z,101630.13
2018-09-26T01:02:07.609Z,101629.61
2018-09-26T01:04:36.543Z,101634.34
2018-09-26T01:07:05.506Z,101637.26
2018-09-26T01:09:34.490Z,101641.17
2018-09-26T01:12:03.406Z,101638.46
2018-09-26T01:14:32.327Z,101645.53
2018-09-26T01:17:01.262Z,101639.17
2018-09-26T01:19:30.181Z,101641.22
2018-09-26T01:21:59.133Z,101646.05
2018-09-26T01:24:28.064Z,101637.53
2018-09-26T01:26:56.997Z,101638.13
2018-09-26T01:29:25.934Z,101638.72
2018-09-26T01:31:54.921Z,101640.64
2018-09-26T01:34:23.866Z,101640.11
2018-09-26T01:36:52.813Z,101637.42
2018-09-26T01:39:21.771Z,101636.78
2018-09-26T01:41:50.691Z,101635.67
2018-09-26T01:44:19.638Z,101644.80
2018-09-26T01:46:48.599Z,101648.44
2018-09-26T01:49:17.813Z,101653.16
2018-09-26T01:51:46.771Z,101652.66
2018-09-26T01:54:15.755Z,101658.09
2018-09-26T01:56:44.682Z,101657.35
2018-09-26T01:59:13.589Z,101652.75
2018-09-26T02:01:42.554Z,101658.09
2018-09-26T02:04:11.486Z,101658.53
2018-09-26T02:06:40.433Z,101654.81
2018-09-26T02:09:11.636Z,101654.92
2018-09-26T02:11:40.621Z,101653.72
2018-09-26T02:14:09.581Z,101655.73
2018-09-26T02:16:38.607Z,101657.11
2018-09-26T02:19:07.621Z,101656.39
2018-09-26T02:21:36.555Z,101661.37
2018-09-26T02:24:05.502Z,101659.86
2018-09-26T02:26:34.421Z,101661.27
2018-09-26T02:29:03.366Z,101662.16
2018-09-26T02:31:32.283Z,101648.04
2018-09-26T02:34:01.249Z,101661.97
2018-09-26T02:36:30.182Z,101659.09
2018-09-26T02:38:59.281Z,101657.65
2018-09-26T02:41:28.252Z,101659.84
2018-09-26T02:43:57.282Z,101658.95
2018-09-26T02:46:26.234Z,101669.27
2018-09-26T02:49:00.154Z,101666.80
2018-09-26T02:51:29.172Z,101658.50
2018-09-26T02:53:58.109Z,101661.45
2018-09-26T02:56:27.074Z,101660.01
2018-09-26T02:58:56.010Z,101663.68
2018-09-26T03:01:25.072Z,101652.38
2018-09-26T03:03:54.050Z,101660.28
2018-09-26T03:06:23.054Z,101663.44
2018-09-26T03:08:52.068Z,101652.92
2018-09-26T03:11:21.179Z,101650.66
2018-09-26T03:13:50.174Z,101663.91
2018-09-26T03:16:19.097Z,101661.41
2018-09-26T03:18:48.042Z,101658.67
2018-09-26T03:21:17.007Z,101665.11
2018-09-26T03:23:45.950Z,101668.47
2018-09-26T03:26:14.910Z,101678.59
2018-09-26T03:28:43.862Z,101673.39
2018-09-26T03:31:12.812Z,101672.91
2018-09-26T03:33:41.816Z,101676.16
2018-09-26T03:36:10.801Z,101674.75
2018-09-26T03:38:39.701Z,101678.13
2018-09-26T03:41:08.621Z,101682.44
2018-09-26T03:43:37.601Z,101680.25
2018-09-26T03:46:06.570Z,101686.55
2018-09-26T03:48:35.540Z,101685.82
2018-09-26T03:51:04.491Z,101689.83
2018-09-26T03:53:33.421Z,101694.98
2018-09-26T03:56:02.370Z,101696.42
2018-09-26T03:58:31.373Z,101696.14
2018-09-26T04:01:00.326Z,101693.70
2018-09-26T04:03:29.277Z,101691.23
2018-09-26T04:05:58.223Z,101697.14
2018-09-26T04:08:27.213Z,101701.25
2018-09-26T04:10:56.193Z,101694.09
2018-09-26T04:13:25.162Z,101702.33
2018-09-26T04:15:55.070Z,101702.14
2018-09-26T04:18:26.117Z,101710.91
2018-09-26T04:20:55.856Z,101708.25
2018-09-26T04:23:24.807Z,101714.83
2018-09-26T04:25:53.734Z,101720.59
2018-09-26T04:28:22.710Z,101721.26
2018-09-26T04:30:51.643Z,101724.36
2018-09-26T04:33:20.718Z,101729.08
2018-09-26T04:35:49.569Z,101740.67
2018-09-26T04:38:18.525Z,101737.22
2018-09-26T04:40:47.459Z,101742.59
2018-09-26T04:43:16.538Z,101743.77
2018-09-26T04:45:45.481Z,101748.34
2018-09-26T04:48:14.415Z,101749.39
2018-09-26T04:50:43.389Z,101750.88
2018-09-26T04:53:12.321Z,101751.11
2018-09-26T04:55:41.290Z,101757.81
2018-09-26T04:58:10.228Z,101758.83
2018-09-26T05:00:39.222Z,101757.77
2018-09-26T05:03:08.185Z,101756.06
2018-09-26T05:05:37.177Z,101754.38
2018-09-26T05:08:06.167Z,101753.11
2018-09-26T05:10:35.111Z,101761.21
2018-09-26T05:13:04.042Z,101762.06
2018-09-26T05:15:32.974Z,101768.27
2018-09-26T05:18:01.931Z,101767.00
2018-09-26T05:20:30.861Z,101765.91
2018-09-26T05:22:59.848Z,101769.48
2018-09-26T05:25:28.870Z,101762.83
2018-09-26T05:27:57.887Z,101765.33
2018-09-26T05:30:26.853Z,101763.59
2018-09-26T05:32:55.797Z,101763.78
2018-09-26T05:35:24.733Z,101761.59
2018-09-26T05:37:53.673Z,101767.58
2018-09-26T05:40:22.618Z,101775.35
2018-09-26T05:42:51.530Z,101780.13
2018-09-26T05:45:20.457Z,101771.21
2018-09-26T05:47:49.373Z,101777.75
2018-09-26T05:50:18.442Z,101782.87
2018-09-26T05:52:47.334Z,101781.72
2018-09-26T05:55:16.260Z,101783.01
2018-09-26T05:57:45.197Z,101788.59
2018-09-26T06:00:14.133Z,101787.61
2018-09-26T06:02:43.100Z,101797.91
2018-09-26T06:05:12.144Z,101799.55
2018-09-26T06:07:41.113Z,101809.81
2018-09-26T06:10:10.077Z,101805.28
2018-09-26T06:12:39.082Z,101813.81
2018-09-26T06:15:08.103Z,101820.42
2018-09-26T06:17:37.019Z,101821.53
2018-09-26T06:20:06.309Z,101819.78
2018-09-26T06:22:35.348Z,101820.78
2018-09-26T06:25:04.326Z,101830.66
2018-09-26T06:27:33.372Z,101835.77
2018-09-26T06:30:02.646Z,101840.39
2018-09-26T06:32:31.572Z,101840.77
2018-09-26T06:35:00.495Z,101838.03
2018-09-26T06:37:29.466Z,101846.99
2018-09-26T06:39:58.409Z,101852.84
2018-09-26T06:42:27.393Z,101851.66
2018-09-26T06:44:56.309Z,101853.97
2018-09-26T06:47:25.321Z,101857.63
2018-09-26T06:49:54.285Z,101854.07
2018-09-26T06:52:23.315Z,101861.47
2018-09-26T06:54:52.243Z,101863.75
2018-09-26T06:57:21.189Z,101864.00
2018-09-26T06:59:50.171Z,101868.63
2018-09-26T07:02:19.201Z,101864.85
2018-09-26T07:04:48.193Z,101868.23
2018-09-26T07:07:17.141Z,101876.12
2018-09-26T07:09:46.078Z,101872.33
2018-09-26T07:12:15.092Z,101873.63
2018-09-26T07:14:44.177Z,101878.23
2018-09-26T07:17:13.086Z,101874.19
2018-09-26T07:19:42.013Z,101873.84
2018-09-26T07:22:10.953Z,101869.59
2018-09-26T07:24:39.962Z,101866.47
2018-09-26T07:27:08.938Z,101867.39
2018-09-26T07:29:37.917Z,101871.83
2018-09-26T07:32:06.971Z,101870.18
2018-09-26T07:34:37.865Z,101872.43
2018-09-26T07:37:07.613Z,101878.28
2018-09-26T07:39:37.406Z,101877.66
2018-09-26T07:42:06.322Z,101878.80
2018-09-26T07:44:35.309Z,101875.55
2018-09-26T07:47:04.241Z,101869.72
2018-09-26T07:49:33.209Z,101865.72
2018-09-26T07:52:02.139Z,101867.84
2018-09-26T07:54:31.107Z,101860.84
2018-09-26T07:57:00.042Z,101874.93
2018-09-26T07:59:29.041Z,101870.19
2018-09-26T08:01:57.979Z,101862.89
2018-09-26T08:04:26.926Z,101860.30
2018-09-26T08:10:28.062Z,101862.58
2018-09-26T08:12:57.033Z,101862.59
2018-09-26T08:15:25.956Z,101852.65
2018-09-26T08:17:54.893Z,101847.81
2018-09-26T08:20:23.814Z,101844.02
2018-09-26T08:22:52.765Z,101841.49
2018-09-26T08:25:21.693Z,101837.80
2018-09-26T08:27:50.687Z,101840.17
2018-09-26T08:30:19.607Z,101840.50
2018-09-26T08:32:48.534Z,101835.75
2018-09-26T08:35:17.486Z,101837.13
2018-09-26T08:37:46.446Z,101780.59
2018-09-26T08:40:15.402Z,101845.30
2018-09-26T08:42:44.310Z,101841.06
2018-09-26T08:45:13.284Z,101837.45
2018-09-26T08:47:42.219Z,101837.39
2018-09-26T08:50:11.291Z,101836.48
2018-09-26T08:52:40.289Z,101843.48
2018-09-26T08:55:09.214Z,101840.20
2018-09-26T08:57:38.279Z,101837.72
2018-09-26T09:00:08.036Z,101833.23
2018-09-26T09:02:37.026Z,101831.13
2018-09-26T09:05:05.943Z,101828.26
2018-09-26T09:07:34.929Z,101823.05
2018-09-26T09:10:03.933Z,101820.06
2018-09-26T09:12:32.886Z,101832.30
2018-09-26T09:15:01.853Z,101828.04
2018-09-26T09:17:30.863Z,101827.34
2018-09-26T09:19:59.804Z,101821.48
2018-09-26T09:22:28.745Z,101818.12
2018-09-26T09:24:57.742Z,101819.14
2018-09-26T09:27:26.961Z,101821.20
2018-09-26T09:29:55.901Z,101815.41
2018-09-26T09:32:24.899Z,101811.67
2018-09-26T09:34:53.832Z,101818.44
2018-09-26T09:37:22.782Z,101825.19
2018-09-26T09:39:51.804Z,101824.30
2018-09-26T09:42:20.797Z,101821.03
2018-09-26T09:44:49.735Z,101814.30
2018-09-26T09:47:18.677Z,101806.22
2018-09-26T09:49:47.606Z,101813.00
2018-09-26T09:52:16.554Z,101819.09
2018-09-26T09:54:45.534Z,101811.96
2018-09-26T09:57:14.497Z,101811.00
2018-09-26T09:59:43.631Z,101808.84
2018-09-26T10:02:12.665Z,101805.47
2018-09-26T10:04:41.615Z,101808.50
2018-09-26T10:07:10.537Z,101809.70
2018-09-26T10:09:39.494Z,101810.70
2018-09-26T10:12:08.539Z,101814.88
2018-09-26T10:14:37.514Z,101809.27
2018-09-26T10:17:06.486Z,101817.70
2018-09-26T10:19:35.428Z,101816.93
2018-09-26T10:22:04.370Z,101819.78
2018-09-26T10:24:33.355Z,101814.16
2018-09-26T10:27:02.274Z,101807.13
2018-09-26T10:29:31.199Z,101808.56
2018-09-26T10:32:00.155Z,101813.05
2018-09-26T10:34:29.070Z,101801.23
2018-09-26T10:36:58.015Z,101811.66
2018-09-26T10:39:26.974Z,101807.51
2018-09-26T10:41:55.934Z,101803.32
2018-09-26T10:44:24.952Z,101803.61
2018-09-26T10:46:53.950Z,101801.41
2018-09-26T10:49:22.969Z,101795.16
2018-09-26T10:51:51.929Z,101800.17
2018-09-26T10:54:20.869Z,101791.31
2018-09-26T10:56:49.870Z,101788.76
2018-09-26T10:59:18.825Z,101797.72
2018-09-26T11:01:47.766Z,101793.88
2018-09-26T11:04:16.735Z,101784.80
2018-09-26T11:06:45.689Z,101786.46
2018-09-26T11:09:14.718Z,101777.72
2018-09-26T11:11:43.663Z,101775.98
2018-09-26T11:14:12.649Z,101774.70
2018-09-26T11:16:41.631Z,101769.45
2018-09-26T11:19:10.611Z,101771.88
2018-09-26T11:21:39.567Z,101769.44
2018-09-26T11:24:08.519Z,101762.85
2018-09-26T11:26:37.601Z,101762.25
2018-09-26T11:29:06.594Z,101764.20
2018-09-26T11:31:35.610Z,101760.26
2018-09-26T11:34:04.746Z,101760.01
2018-09-26T11:36:33.725Z,101760.92
2018-09-26T11:39:02.780Z,101758.69
2018-09-26T11:41:31.698Z,101753.94
2018-09-26T11:44:00.683Z,101751.25
2018-09-26T11:46:29.613Z,101749.55
2018-09-26T11:48:58.595Z,101749.48
2018-09-26T11:51:27.555Z,101742.72
2018-09-26T11:53:56.599Z,101738.41
2018-09-26T11:56:25.636Z,101736.71
2018-09-26T11:58:54.606Z,101724.12
2018-09-26T12:01:23.637Z,101727.42
2018-09-26T12:03:52.591Z,101724.25
2018-09-26T12:06:21.654Z,101725.91
2018-09-26T12:08:50.560Z,101727.08
2018-09-26T12:11:19.522Z,101727.20
2018-09-26T12:13:48.540Z,101720.87
2018-09-26T12:16:17.635Z,101724.98
2018-09-26T12:18:46.689Z,101721.59
2018-09-26T12:21:15.670Z,101717.13
2018-09-26T12:23:44.606Z,101712.58
2018-09-26T12:26:13.565Z,101713.59
2018-09-26T12:28:42.510Z,101711.45
2018-09-26T12:31:11.455Z,101717.59
2018-09-26T12:33:40.440Z,101709.62
2018-09-26T12:36:09.419Z,101712.02
2018-09-26T12:38:38.422Z,101706.09
2018-09-26T12:41:07.423Z,101712.87
2018-09-26T12:43:36.377Z,101714.91
2018-09-26T12:46:05.361Z,101713.22
2018-09-26T12:48:34.416Z,101715.41
2018-09-26T12:51:03.370Z,101723.56
2018-09-26T12:53:32.348Z,101712.21
2018-09-26T12:56:01.342Z,101716.28
2018-09-26T12:58:30.287Z,101712.00
2018-09-26T13:00:59.310Z,101703.03
2018-09-26T13:03:28.239Z,101699.95
2018-09-26T13:05:57.186Z,101700.45
2018-09-26T13:08:26.262Z,101697.77
2018-09-26T13:10:55.102Z,101696.05
2018-09-26T13:13:24.062Z,101692.80
2018-09-26T13:15:53.041Z,101688.02
2018-09-26T13:18:22.143Z,101687.00
2018-09-26T13:20:51.238Z,101687.67
2018-09-26T13:23:20.266Z,101678.09
2018-09-26T13:25:49.243Z,101670.66
2018-09-26T13:28:18.262Z,101677.66
2018-09-26T13:30:47.339Z,101687.52
2018-09-26T13:33:16.258Z,101687.35
2018-09-26T13:35:45.217Z,101685.53
2018-09-26T13:38:14.205Z,101676.77
2018-09-26T13:40:43.163Z,101682.07
2018-09-26T13:43:12.098Z,101674.77
2018-09-26T13:45:41.109Z,101678.22
2018-09-26T13:48:10.096Z,101672.09
2018-09-26T13:50:39.073Z,101657.88
2018-09-26T13:53:08.050Z,101657.06
2018-09-26T13:55:36.986Z,101659.44
2018-09-26T13:58:05.931Z,101657.22
2018-09-26T14:00:34.888Z,101651.78
2018-09-26T14:03:03.878Z,101650.96
2018-09-26T14:05:32.818Z,101653.16
2018-09-26T14:08:01.765Z,101643.34
2018-09-26T14:10:30.819Z,101650.61
2018-09-26T14:12:59.722Z,101652.80
2018-09-26T14:15:28.672Z,101653.44
2018-09-26T14:17:57.651Z,101645.95
2018-09-26T14:20:26.649Z,101644.42
2018-09-26T14:22:55.583Z,101651.34
2018-09-26T14:25:24.519Z,101649.45
2018-09-26T14:27:53.489Z,101646.53
2018-09-26T14:30:22.477Z,101648.23
2018-09-26T14:32:51.407Z,101644.70
2018-09-26T14:35:20.405Z,101653.33
2018-09-26T14:37:49.452Z,101642.88
2018-09-26T14:40:18.395Z,101649.66
2018-09-26T14:42:47.356Z,101653.06
2018-09-26T14:45:16.365Z,101652.53
2018-09-26T14:47:45.281Z,101648.48
2018-09-26T14:50:14.250Z,101642.03
2018-09-26T14:52:43.241Z,101633.35
2018-09-26T14:55:12.207Z,101636.55
2018-09-26T14:57:41.152Z,101637.19
2018-09-26T15:00:10.328Z,101645.47
2018-09-26T15:02:39.271Z,101645.44
2018-09-26T15:05:08.214Z,101649.97
2018-09-26T15:07:37.166Z,101648.12
2018-09-26T15:10:06.397Z,101657.25
2018-09-26T15:12:35.321Z,101657.06
2018-09-26T15:15:04.250Z,101648.78
2018-09-26T15:17:33.199Z,101653.03
2018-09-26T15:20:02.145Z,101648.43
2018-09-26T15:22:31.187Z,101648.39
2018-09-26T15:25:00.114Z,101639.87
2018-09-26T15:27:29.141Z,101658.48
2018-09-26T15:29:58.097Z,101645.64
2018-09-26T15:32:27.159Z,101654.73
2018-09-26T15:34:55.993Z,101655.23
2018-09-26T15:37:24.934Z,101657.78
2018-09-26T15:39:53.902Z,101657.78
2018-09-26T15:42:22.907Z,101661.30
2018-09-26T15:44:51.856Z,101656.73
2018-09-26T15:47:20.866Z,101657.97
2018-09-26T15:49:49.794Z,101663.38
2018-09-26T15:52:18.812Z,101666.67
2018-09-26T15:54:47.744Z,101664.92
2018-09-26T15:57:16.718Z,101665.88
2018-09-26T15:59:45.654Z,101667.45
2018-09-26T16:02:14.838Z,101661.42
2018-09-26T16:04:43.726Z,101660.72
2018-09-26T16:07:12.758Z,101661.22
2018-09-26T16:09:41.687Z,101663.10
2018-09-26T16:12:10.689Z,101665.30
2018-09-26T16:14:39.619Z,101663.55
2018-09-26T16:17:08.575Z,101669.70
2018-09-26T16:19:37.538Z,101670.24
2018-09-26T16:22:06.504Z,101671.80
2018-09-26T16:24:35.444Z,101669.92
2018-09-26T16:27:04.399Z,101669.88
2018-09-26T16:29:33.408Z,101680.28
2018-09-26T16:32:02.334Z,101677.39
2018-09-26T16:34:31.263Z,101681.26
2018-09-26T16:37:00.227Z,101676.28
2018-09-26T16:39:29.353Z,101674.08
2018-09-26T16:41:58.172Z,101681.64
2018-09-26T16:44:27.114Z,101682.07
2018-09-26T16:46:56.083Z,101680.22
2018-09-26T16:49:25.027Z,101688.97
2018-09-26T16:51:54.049Z,101684.05
2018-09-26T16:54:23.042Z,101686.59
2018-09-26T16:56:52.006Z,101687.55
2018-09-26T16:59:20.974Z,101698.25
2018-09-26T17:01:49.905Z,101693.12
2018-09-26T17:04:18.928Z,101693.69
2018-09-26T17:06:47.829Z,101698.51
2018-09-26T17:09:16.762Z,101705.86
2018-09-26T17:11:45.710Z,101699.20
2018-09-26T17:14:14.740Z,101697.91
2018-09-26T17:16:43.750Z,101700.63
2018-09-26T17:19:12.806Z,101699.97
2018-09-26T17:21:41.770Z,101702.25
2018-09-26T17:24:10.728Z,101705.50
2018-09-26T17:26:39.712Z,101711.31
2018-09-26T17:29:08.745Z,101710.92
2018-09-26T17:31:37.686Z,101710.00
2018-09-26T17:34:06.667Z,101712.84
2018-09-26T17:36:35.732Z,101716.30
2018-09-26T17:39:05.910Z,101713.98
2018-09-26T17:41:34.886Z,101724.77
2018-09-26T17:44:03.969Z,101726.52
2018-09-26T17:46:33.113Z,101729.73
2018-09-26T17:49:02.087Z,101722.92
2018-09-26T17:51:31.190Z,101718.44
2018-09-26T17:54:00.130Z,101728.95
2018-09-26T17:56:29.091Z,101728.73
2018-09-26T17:58:58.096Z,101718.01
2018-09-26T18:01:27.115Z,101730.58
2018-09-26T18:03:56.072Z,101734.59
2018-09-26T18:06:25.039Z,101734.36
2018-09-26T18:08:53.992Z,101733.15
2018-09-26T18:11:22.958Z,101636.82
2018-09-26T18:13:51.998Z,101725.33
2018-09-26T18:16:20.952Z,101728.65
2018-09-26T18:18:49.924Z,101739.47
2018-09-26T18:21:18.965Z,101737.31
2018-09-26T18:23:47.903Z,101748.39
2018-09-26T18:26:16.882Z,101736.57
2018-09-26T18:28:45.851Z,101736.45
2018-09-26T18:31:14.822Z,101735.59
2018-09-26T18:33:43.798Z,101733.75
2018-09-26T18:36:12.786Z,101731.80
2018-09-26T18:38:41.755Z,101730.96
2018-09-26T18:41:10.765Z,101729.75
2018-09-26T18:43:39.794Z,101732.04
2018-09-26T18:46:08.730Z,101735.33
2018-09-26T18:48:37.681Z,101735.08
2018-09-26T18:51:06.687Z,101735.80
2018-09-26T18:53:35.595Z,101721.28
2018-09-26T18:56:04.561Z,101729.44
2018-09-26T18:58:33.510Z,101732.34
2018-09-26T19:01:02.554Z,101726.24
2018-09-26T19:03:31.470Z,101731.56
2018-09-26T19:06:00.550Z,101736.30
2018-09-26T19:08:29.489Z,101740.31
2018-09-26T19:10:58.410Z,101741.23
2018-09-26T19:13:27.346Z,101736.69
2018-09-26T19:15:56.275Z,101740.44
2018-09-26T19:18:25.211Z,101737.27
2018-09-26T19:20:54.144Z,101740.16
2018-09-26T19:23:23.097Z,101739.29
2018-09-26T19:25:52.043Z,101742.55
2018-09-26T19:28:21.051Z,101743.73
2018-09-26T19:30:50.015Z,101754.70
2018-09-26T19:33:18.955Z,101750.29
2018-09-26T19:35:47.895Z,101746.09
2018-09-26T19:38:16.819Z,101728.84
2018-09-26T19:40:45.787Z,101748.91
2018-09-26T19:43:14.738Z,101748.61
2018-09-26T19:45:43.682Z,101747.94
2018-09-26T19:48:12.622Z,101742.66
2018-09-26T19:50:41.637Z,101744.69
2018-09-26T19:53:10.594Z,101739.34
2018-09-26T19:55:39.536Z,101743.94
2018-09-26T19:58:08.483Z,101745.73
2018-09-26T20:00:37.393Z,101754.41
2018-09-26T20:03:06.555Z,101757.24
2018-09-26T20:05:35.470Z,101753.27
2018-09-26T20:08:04.524Z,101756.58
2018-09-26T20:10:33.387Z,101758.16
2018-09-26T20:13:02.433Z,101755.55
2018-09-26T20:15:31.317Z,101763.76
2018-09-26T20:18:00.685Z,101768.83
2018-09-26T20:20:29.708Z,101773.03
2018-09-26T20:22:58.663Z,101766.97
2018-09-26T20:25:27.656Z,101773.37
2018-09-26T20:27:56.595Z,101772.61
2018-09-26T20:30:25.567Z,101776.80
2018-09-26T20:32:54.516Z,101761.34
2018-09-26T20:35:23.606Z,101771.38
2018-09-26T20:37:52.846Z,101768.45
2018-09-26T20:40:21.788Z,101769.61
2018-09-26T20:42:50.734Z,101773.81
2018-09-26T20:45:19.682Z,101772.33
2018-09-26T20:47:48.649Z,101774.52
2018-09-26T20:50:17.571Z,101774.34
2018-09-26T20:52:46.538Z,101780.16
2018-09-26T20:55:15.490Z,101781.11
2018-09-26T20:57:44.540Z,101780.58
2018-09-26T21:00:13.479Z,101787.84
2018-09-26T21:02:42.413Z,101781.83
2018-09-26T21:05:11.698Z,101783.11
2018-09-26T21:07:40.631Z,101785.24
2018-09-26T21:10:10.319Z,101780.86
2018-09-26T21:12:39.291Z,101774.00
2018-09-26T21:15:08.369Z,101780.67
2018-09-26T21:17:37.353Z,101781.34
2018-09-26T21:20:06.325Z,101778.42
2018-09-26T21:22:35.250Z,101782.91
2018-09-26T21:25:04.174Z,101779.37
2018-09-26T21:27:33.118Z,101775.84
2018-09-26T21:30:02.107Z,101776.89
2018-09-26T21:32:31.083Z,101779.19
2018-09-26T21:35:00.022Z,101784.33
2018-09-26T21:37:29.042Z,101783.41
2018-09-26T21:39:57.968Z,101780.20
2018-09-26T21:42:26.903Z,101780.00
2018-09-26T21:44:55.846Z,101780.19
2018-09-26T21:47:24.779Z,101781.27
2018-09-26T21:49:53.751Z,101782.50
2018-09-26T21:52:22.754Z,101778.59
2018-09-26T21:54:51.693Z,101784.40
2018-09-26T21:57:20.657Z,101778.52
2018-09-26T21:59:49.645Z,101779.47
2018-09-26T22:02:19.478Z,101779.47
2018-09-26T22:04:48.414Z,101774.70
2018-09-26T22:07:17.409Z,101773.20
2018-09-26T22:09:46.342Z,101772.25
2018-09-26T22:12:15.357Z,101768.25
2018-09-26T22:14:44.300Z,101768.53
2018-09-26T22:17:13.255Z,101765.95
2018-09-26T22:19:42.194Z,101765.19
2018-09-26T22:22:11.204Z,101765.19
2018-09-26T22:24:40.149Z,101757.19
2018-09-26T22:27:09.110Z,101763.50
2018-09-26T22:29:38.081Z,101753.68
2018-09-26T22:32:07.090Z,101757.68
2018-09-26T22:34:36.029Z,101759.48
2018-09-26T22:37:04.990Z,101747.97
2018-09-26T22:39:33.942Z,101761.04
2018-09-26T22:42:02.870Z,101763.50
2018-09-26T22:44:31.866Z,101750.36
2018-09-26T22:47:00.790Z,101749.14
2018-09-26T22:49:29.717Z,101752.29
2018-09-26T22:51:58.679Z,101753.42
2018-09-26T22:54:27.629Z,101748.87
2018-09-26T22:56:56.611Z,101755.89
2018-09-26T22:59:26.548Z,101756.11
2018-09-26T23:01:55.493Z,101757.23
2018-09-26T23:04:24.602Z,101760.08
2018-09-26T23:06:53.634Z,101755.44
